• January 17, 2022, 11:47:03 AM
• Welcome, Guest. Please login or register.
Did you miss your activation email?

!!

TEMAC Forum Guests

Please take the time to Register for the forum, especially if you are a TEMAC club member.

This is one of the most active RC club forums in Ontario. Please participate in the discussion to help our great club to continue to grow.

Author Topic: Nov 11 flying  (Read 125 times)

0 Members and 1 Guest are viewing this topic.

Offline GuyOReilly

  • Ace
  • *****
  • Posts: 507
  • Karma: +1/-0
  • Real Name: Guy O'Reilly
  • Started Flying RC: 1998
Nov 11 flying
« on: November 11, 2021, 12:38:52 PM »
I was wondering if there would be anybody at the field this morning.   ???
Then I looked at the METAR: YYZ 111438Z 1115/1218 10013G23KT P6SM SCT140 OVC220  :o
Have a great day, I going sanding something in the warmth of my basement.
Guy.